createdAt,value
2022-07-31T00:01:21.268Z,8.73
2022-07-31T00:04:25.038Z,8.60
2022-07-31T00:07:28.067Z,8.47
2022-07-31T00:10:31.258Z,7.90
2022-07-31T00:13:56.380Z,8.03
2022-07-31T00:16:58.698Z,8.50
2022-07-31T00:20:01.953Z,8.50
2022-07-31T00:23:06.023Z,8.20
2022-07-31T00:26:09.538Z,8.20
2022-07-31T00:29:16.109Z,8.77
2022-07-31T00:32:19.484Z,9.30
2022-07-31T00:35:22.721Z,8.90
2022-07-31T00:38:27.625Z,8.27
2022-07-31T00:41:39.491Z,8.80
2022-07-31T00:44:43.984Z,8.10
2022-07-31T00:47:51.091Z,8.00
2022-07-31T00:50:58.938Z,8.30
2022-07-31T00:54:01.985Z,8.27
2022-07-31T00:57:05.966Z,7.30
2022-07-31T01:00:13.706Z,7.47
2022-07-31T01:03:18.689Z,7.50
2022-07-31T01:06:21.835Z,8.00
2022-07-31T01:09:24.910Z,7.30
2022-07-31T01:12:32.774Z,8.33
2022-07-31T01:15:39.161Z,6.47
2022-07-31T01:18:44.363Z,7.40
2022-07-31T01:21:59.546Z,8.13
2022-07-31T01:25:11.125Z,7.07
2022-07-31T01:28:25.939Z,7.00
2022-07-31T01:31:37.083Z,6.30
2022-07-31T01:34:45.901Z,6.50
2022-07-31T01:37:54.966Z,6.10
2022-07-31T01:41:00.689Z,6.50
2022-07-31T01:44:05.434Z,6.17
2022-07-31T01:47:11.445Z,5.93
2022-07-31T01:50:42.660Z,6.70
2022-07-31T01:53:41.109Z,6.23
2022-07-31T01:56:45.864Z,6.43
2022-07-31T01:59:50.814Z,7.80
2022-07-31T02:03:07.691Z,7.53
2022-07-31T02:06:14.075Z,7.00
2022-07-31T02:09:20.549Z,7.10
2022-07-31T02:12:31.914Z,9.80
2022-07-31T02:15:37.480Z,7.30
2022-07-31T02:18:42.932Z,6.60
2022-07-31T02:21:46.442Z,6.50
2022-07-31T02:24:49.626Z,7.50
2022-07-31T02:27:58.539Z,6.73
2022-07-31T02:31:02.785Z,5.87
2022-07-31T02:34:07.333Z,7.40
2022-07-31T02:37:11.470Z,6.73
2022-07-31T02:40:16.161Z,6.90
2022-07-31T02:43:20.009Z,6.60
2022-07-31T02:46:23.996Z,7.50
2022-07-31T02:49:28.856Z,7.40
2022-07-31T02:52:32.356Z,8.00
2022-07-31T02:55:35.950Z,7.60
2022-07-31T02:58:42.066Z,7.63
2022-07-31T03:01:45.248Z,7.90
2022-07-31T03:04:49.970Z,7.83
2022-07-31T03:07:53.089Z,8.90
2022-07-31T03:10:56.173Z,8.90
2022-07-31T03:14:01.955Z,12.40
2022-07-31T03:17:07.000Z,9.93
2022-07-31T03:20:12.884Z,13.50
2022-07-31T03:23:16.039Z,15.67
2022-07-31T03:26:19.726Z,11.20
2022-07-31T03:29:41.831Z,11.10
2022-07-31T03:32:45.919Z,10.43
2022-07-31T03:35:50.443Z,11.33
2022-07-31T03:38:53.536Z,10.60
2022-07-31T03:41:58.495Z,14.90
2022-07-31T03:45:03.103Z,10.47
2022-07-31T03:48:08.577Z,10.23
2022-07-31T03:51:13.644Z,10.03
2022-07-31T03:54:16.865Z,11.77
2022-07-31T03:57:21.650Z,12.00
2022-07-31T04:00:30.634Z,12.47
2022-07-31T04:03:34.442Z,11.87
2022-07-31T04:06:38.896Z,29.73
2022-07-31T04:09:42.920Z,27.47
2022-07-31T04:12:45.954Z,18.27
2022-07-31T04:15:49.030Z,14.10
2022-07-31T04:18:52.102Z,11.30
2022-07-31T04:21:56.575Z,11.67
2022-07-31T04:24:59.669Z,11.07
2022-07-31T04:28:03.143Z,10.17
2022-07-31T04:31:06.221Z,10.43
2022-07-31T04:34:10.703Z,10.27
2022-07-31T04:37:16.336Z,10.30
2022-07-31T04:40:19.413Z,10.27
2022-07-31T04:43:22.503Z,10.47
2022-07-31T04:46:25.604Z,10.53
2022-07-31T04:49:28.749Z,11.37
2022-07-31T04:52:35.103Z,10.83
2022-07-31T04:55:38.202Z,10.60
2022-07-31T04:58:41.217Z,10.47
2022-07-31T05:01:45.527Z,13.70
2022-07-31T05:04:52.471Z,10.73
2022-07-31T05:08:02.303Z,11.33
2022-07-31T05:11:23.661Z,12.37
2022-07-31T05:14:27.286Z,11.03
2022-07-31T05:17:30.379Z,11.73
2022-07-31T05:20:33.407Z,10.57
2022-07-31T05:23:37.949Z,11.80
2022-07-31T05:26:41.003Z,10.60
2022-07-31T05:29:44.132Z,10.90
2022-07-31T05:32:47.180Z,10.77
2022-07-31T05:35:50.258Z,11.57
2022-07-31T05:38:54.741Z,10.07
2022-07-31T05:41:58.095Z,12.37
2022-07-31T05:45:01.150Z,16.03
2022-07-31T05:48:04.544Z,9.80
2022-07-31T05:51:10.245Z,9.07
2022-07-31T05:54:14.841Z,9.07
2022-07-31T05:57:33.724Z,8.57
2022-07-31T06:00:37.959Z,8.90
2022-07-31T06:03:51.904Z,7.80
2022-07-31T06:06:55.688Z,8.90
2022-07-31T06:10:00.825Z,8.20
2022-07-31T06:13:04.043Z,10.30
2022-07-31T06:16:13.836Z,15.13
2022-07-31T06:19:17.081Z,9.67
2022-07-31T06:22:20.103Z,12.30
2022-07-31T06:25:30.162Z,20.13
2022-07-31T06:28:47.832Z,22.83
2022-07-31T06:31:52.132Z,33.00
2022-07-31T06:34:55.289Z,25.40
2022-07-31T06:37:58.354Z,29.30
2022-07-31T06:41:02.785Z,20.50
2022-07-31T06:44:05.994Z,18.57
2022-07-31T06:47:13.877Z,18.57
2022-07-31T06:50:19.471Z,17.93
2022-07-31T06:53:22.553Z,17.60
2022-07-31T06:56:26.996Z,19.30
2022-07-31T06:59:39.317Z,18.20
2022-07-31T07:02:43.744Z,19.03
2022-07-31T07:05:46.822Z,25.63
2022-07-31T07:08:50.061Z,23.20
2022-07-31T07:11:55.023Z,21.90
2022-07-31T07:14:58.218Z,24.07
2022-07-31T07:18:01.378Z,21.90
2022-07-31T07:21:05.593Z,25.13
2022-07-31T07:24:10.285Z,133.60
2022-07-31T07:27:14.718Z,72.47
2022-07-31T07:30:17.833Z,89.40
2022-07-31T07:33:41.215Z,50.43
2022-07-31T07:36:43.979Z,45.20
2022-07-31T07:39:47.051Z,50.87
2022-07-31T07:42:51.522Z,39.00
2022-07-31T07:45:54.691Z,26.20
2022-07-31T07:48:57.846Z,35.33
2022-07-31T07:52:00.972Z,23.00
2022-07-31T07:55:05.005Z,24.87
2022-07-31T07:58:12.069Z,22.87
2022-07-31T08:01:16.190Z,22.03
2022-07-31T08:04:19.347Z,20.10
2022-07-31T08:07:42.527Z,25.83
2022-07-31T08:10:46.110Z,22.17
2022-07-31T08:13:51.363Z,21.43
2022-07-31T08:16:54.608Z,20.53
2022-07-31T08:19:57.913Z,21.07
2022-07-31T08:23:00.991Z,18.30
2022-07-31T08:26:06.542Z,17.17
2022-07-31T08:29:11.180Z,16.60
2022-07-31T08:32:15.470Z,15.83
2022-07-31T08:35:20.755Z,14.70
2022-07-31T08:38:23.870Z,14.23
2022-07-31T08:41:27.068Z,14.70
2022-07-31T08:44:31.602Z,13.13
2022-07-31T08:47:36.464Z,14.90
2022-07-31T08:50:41.463Z,14.63
2022-07-31T08:53:45.681Z,14.13
2022-07-31T08:56:52.455Z,13.67
2022-07-31T08:59:57.597Z,13.47
2022-07-31T09:03:00.775Z,13.67
2022-07-31T09:06:03.836Z,12.13
2022-07-31T09:09:07.283Z,12.13
2022-07-31T09:12:10.914Z,12.37
2022-07-31T09:15:26.156Z,13.40
2022-07-31T09:18:29.229Z,11.30
2022-07-31T09:21:40.393Z,11.77
2022-07-31T09:24:43.522Z,12.17
2022-07-31T09:27:47.586Z,12.33
2022-07-31T09:30:57.102Z,11.53
2022-07-31T09:34:00.731Z,14.20
2022-07-31T09:37:13.261Z,12.87
2022-07-31T09:40:21.106Z,11.40
2022-07-31T09:43:25.716Z,12.30
2022-07-31T09:46:40.242Z,14.40
2022-07-31T09:49:43.372Z,12.47
2022-07-31T09:52:46.558Z,13.77
2022-07-31T09:55:52.723Z,16.13
2022-07-31T09:58:55.911Z,16.87
2022-07-31T10:02:01.324Z,16.60
2022-07-31T10:05:06.207Z,17.17
2022-07-31T10:08:11.614Z,16.93
2022-07-31T10:11:20.387Z,18.40
2022-07-31T10:14:29.407Z,18.77
2022-07-31T10:17:37.692Z,19.37
2022-07-31T10:20:45.557Z,17.73
2022-07-31T10:23:49.296Z,19.30
2022-07-31T10:27:07.867Z,20.10
2022-07-31T10:30:13.675Z,19.13
2022-07-31T10:33:42.607Z,19.30
2022-07-31T10:36:45.086Z,19.60
2022-07-31T10:39:54.805Z,19.23
2022-07-31T10:43:13.051Z,19.43
2022-07-31T10:46:16.243Z,18.37
2022-07-31T10:49:20.823Z,16.80
2022-07-31T10:52:31.330Z,16.63
2022-07-31T10:55:35.399Z,17.40
2022-07-31T10:58:49.153Z,16.33
2022-07-31T11:01:54.934Z,17.10
2022-07-31T11:05:11.274Z,16.07
2022-07-31T11:08:14.434Z,16.63
2022-07-31T11:11:17.624Z,16.17
2022-07-31T11:14:32.942Z,15.80
2022-07-31T11:18:22.055Z,15.03
2022-07-31T11:21:17.364Z,14.90
2022-07-31T11:24:25.708Z,15.63
2022-07-31T11:27:32.290Z,14.63
2022-07-31T11:30:35.816Z,13.87
2022-07-31T11:33:43.001Z,14.50
2022-07-31T11:36:51.192Z,14.77
2022-07-31T11:39:57.059Z,14.30
2022-07-31T11:46:27.187Z,14.53
2022-07-31T11:49:39.206Z,14.50
2022-07-31T11:53:03.649Z,13.93
2022-07-31T11:56:07.018Z,15.07
2022-07-31T11:59:45.367Z,15.33
2022-07-31T12:02:33.338Z,14.47
2022-07-31T12:05:45.597Z,14.63
2022-07-31T12:08:51.115Z,16.10
2022-07-31T12:11:54.339Z,15.87
2022-07-31T12:14:57.653Z,15.67
2022-07-31T12:18:05.173Z,16.13
2022-07-31T12:21:08.302Z,15.27
2022-07-31T12:24:14.197Z,15.60
2022-07-31T12:27:18.633Z,14.30
2022-07-31T12:30:29.627Z,15.03
2022-07-31T12:33:42.151Z,13.87
2022-07-31T12:36:45.310Z,13.80
2022-07-31T12:40:00.631Z,13.43
2022-07-31T12:43:04.376Z,14.00
2022-07-31T12:46:07.605Z,14.07
2022-07-31T12:49:10.852Z,13.70
2022-07-31T12:52:14.075Z,13.87
2022-07-31T12:55:18.830Z,14.13
2022-07-31T12:58:21.957Z,13.53
2022-07-31T13:01:25.127Z,13.10
2022-07-31T13:04:28.295Z,12.40
2022-07-31T13:07:31.463Z,11.90
2022-07-31T13:10:36.074Z,10.97
2022-07-31T13:13:39.157Z,10.80
2022-07-31T13:16:42.327Z,11.93
2022-07-31T13:19:45.400Z,11.37
2022-07-31T13:22:48.461Z,10.97
2022-07-31T13:25:53.022Z,12.17
2022-07-31T13:28:56.127Z,12.53
2022-07-31T13:31:59.180Z,11.20
2022-07-31T13:35:27.880Z,11.37
2022-07-31T13:38:25.308Z,12.17
2022-07-31T13:41:31.134Z,12.90
2022-07-31T13:44:34.525Z,12.03
2022-07-31T13:47:50.564Z,11.77
2022-07-31T13:50:54.264Z,11.70
2022-07-31T13:54:00.977Z,10.37
2022-07-31T13:57:06.573Z,11.13
2022-07-31T14:00:11.155Z,11.50
2022-07-31T14:03:17.051Z,11.13
2022-07-31T14:06:22.247Z,11.60
2022-07-31T14:09:26.335Z,12.30
2022-07-31T14:12:30.777Z,12.57
2022-07-31T14:15:33.845Z,12.57
2022-07-31T14:18:36.871Z,12.97
2022-07-31T14:21:39.930Z,11.80
2022-07-31T14:24:59.730Z,13.07
2022-07-31T14:28:04.521Z,13.07
2022-07-31T14:31:07.678Z,26.00
2022-07-31T14:34:10.774Z,12.00
2022-07-31T14:37:13.838Z,11.67
2022-07-31T14:40:17.748Z,11.53
2022-07-31T14:43:22.249Z,11.80
2022-07-31T14:46:25.326Z,14.17
2022-07-31T14:50:08.617Z,11.43
2022-07-31T14:52:51.645Z,35.20
2022-07-31T14:55:54.698Z,14.30
2022-07-31T14:59:08.292Z,11.90
2022-07-31T15:02:12.051Z,11.73
2022-07-31T15:06:50.796Z,11.47
2022-07-31T15:08:39.243Z,11.13
2022-07-31T15:11:58.413Z,11.60
2022-07-31T15:15:06.053Z,11.93
2022-07-31T15:18:09.147Z,17.43
2022-07-31T15:21:16.458Z,11.03
2022-07-31T15:24:19.581Z,11.27
2022-07-31T15:27:24.211Z,10.53
2022-07-31T15:30:28.992Z,10.70
2022-07-31T15:33:32.182Z,11.00
2022-07-31T15:36:35.260Z,11.00
2022-07-31T15:39:38.651Z,11.30
2022-07-31T15:42:43.712Z,13.10
2022-07-31T15:45:48.361Z,66.50
2022-07-31T15:48:52.243Z,89.37
2022-07-31T15:51:55.386Z,47.10
2022-07-31T15:54:58.487Z,30.03
2022-07-31T15:58:01.620Z,14.60
2022-07-31T16:01:06.166Z,11.37
2022-07-31T16:04:14.138Z,11.10
2022-07-31T16:08:29.796Z,11.33
2022-07-31T16:10:43.448Z,11.50
2022-07-31T16:13:46.577Z,10.50
2022-07-31T16:16:51.582Z,10.57
2022-07-31T16:19:59.817Z,10.50
2022-07-31T16:23:03.290Z,11.07
2022-07-31T16:26:07.214Z,10.00
2022-07-31T16:29:17.265Z,10.23
2022-07-31T16:32:22.168Z,10.53
2022-07-31T16:35:26.407Z,10.40
2022-07-31T16:38:29.599Z,10.97
2022-07-31T16:41:32.689Z,10.33
2022-07-31T16:44:37.274Z,11.23
2022-07-31T16:47:50.925Z,9.47
2022-07-31T16:50:55.191Z,9.63
2022-07-31T16:54:10.637Z,9.90
2022-07-31T16:57:19.278Z,9.47
2022-07-31T17:00:22.612Z,9.03
2022-07-31T17:03:58.546Z,9.90
2022-07-31T17:06:50.173Z,10.00
2022-07-31T17:09:53.328Z,9.40
2022-07-31T17:12:56.494Z,9.87
2022-07-31T17:15:59.634Z,9.77
2022-07-31T17:19:05.731Z,10.00
2022-07-31T17:22:11.298Z,9.17
2022-07-31T17:25:14.751Z,9.00
2022-07-31T17:28:17.905Z,9.10
2022-07-31T17:31:21.214Z,9.43
2022-07-31T17:34:25.780Z,9.43
2022-07-31T17:37:30.226Z,9.00
2022-07-31T17:40:43.371Z,9.10
2022-07-31T17:43:50.508Z,9.37
2022-07-31T17:46:57.805Z,8.17
2022-07-31T17:50:02.697Z,8.20
2022-07-31T17:53:06.019Z,8.00
2022-07-31T17:56:12.657Z,8.40
2022-07-31T17:59:16.215Z,7.43
2022-07-31T18:02:19.496Z,8.63
2022-07-31T18:05:24.206Z,8.60
2022-07-31T18:08:29.396Z,8.57
2022-07-31T18:11:32.602Z,8.13
2022-07-31T18:14:35.695Z,7.70
2022-07-31T18:17:41.377Z,8.40
2022-07-31T18:20:46.550Z,8.40
2022-07-31T18:23:49.788Z,7.73
2022-07-31T18:26:54.677Z,8.20
2022-07-31T18:29:58.530Z,8.20
2022-07-31T18:33:02.026Z,8.37
2022-07-31T18:36:06.890Z,8.80
2022-07-31T18:39:10.063Z,9.30
2022-07-31T18:42:13.174Z,8.10
2022-07-31T18:45:16.518Z,8.60
2022-07-31T18:48:21.162Z,8.17
2022-07-31T18:51:25.913Z,8.30
2022-07-31T18:54:29.091Z,8.43
2022-07-31T18:57:32.257Z,9.10
2022-07-31T19:00:35.747Z,9.00
2022-07-31T19:03:39.257Z,7.67
2022-07-31T19:06:44.683Z,7.43
2022-07-31T19:09:47.825Z,8.57
2022-07-31T19:12:51.196Z,7.57
2022-07-31T19:15:54.534Z,8.73
2022-07-31T19:18:57.624Z,7.97
2022-07-31T19:22:02.710Z,8.00
2022-07-31T19:25:06.759Z,7.23
2022-07-31T19:28:11.562Z,7.60
2022-07-31T19:31:18.802Z,7.40
2022-07-31T19:34:21.981Z,7.17
2022-07-31T19:37:26.995Z,7.30
2022-07-31T19:40:33.192Z,7.57
2022-07-31T19:43:36.424Z,7.00
2022-07-31T19:46:39.458Z,7.30
2022-07-31T19:49:44.807Z,7.57
2022-07-31T19:52:49.402Z,7.00
2022-07-31T19:55:52.482Z,6.70
2022-07-31T19:58:55.634Z,6.77
2022-07-31T20:01:58.758Z,6.20
2022-07-31T20:05:01.889Z,6.90
2022-07-31T20:08:06.532Z,7.17
2022-07-31T20:11:09.916Z,7.60
2022-07-31T20:14:12.982Z,7.70
2022-07-31T20:17:16.098Z,7.70
2022-07-31T20:20:19.138Z,7.83
2022-07-31T20:23:23.621Z,6.90
2022-07-31T20:26:27.105Z,7.43
2022-07-31T20:29:30.203Z,7.27
2022-07-31T20:32:33.473Z,7.10
2022-07-31T20:35:49.296Z,7.27
2022-07-31T20:38:54.507Z,7.27
2022-07-31T20:41:57.748Z,7.33
2022-07-31T20:45:00.982Z,7.67
2022-07-31T20:48:04.042Z,7.77
2022-07-31T20:51:09.181Z,7.57
2022-07-31T20:54:13.629Z,6.80
2022-07-31T20:57:17.432Z,7.70
2022-07-31T21:00:20.825Z,7.00
2022-07-31T21:03:23.919Z,7.27
2022-07-31T21:06:27.034Z,7.23
2022-07-31T21:09:32.250Z,6.80
2022-07-31T21:12:35.304Z,6.90
2022-07-31T21:15:42.058Z,7.13
2022-07-31T21:18:50.595Z,6.60
2022-07-31T21:21:53.841Z,7.20
2022-07-31T21:24:58.935Z,6.23
2022-07-31T21:28:02.739Z,6.77
2022-07-31T21:31:06.414Z,6.67
2022-07-31T21:34:09.826Z,6.47
2022-07-31T21:37:16.207Z,5.80
2022-07-31T21:40:21.874Z,5.70
2022-07-31T21:43:25.694Z,5.80
2022-07-31T21:46:30.435Z,5.60
2022-07-31T21:49:36.008Z,6.30
2022-07-31T21:52:39.143Z,5.17
2022-07-31T21:55:43.660Z,5.60
2022-07-31T21:58:46.736Z,5.70
2022-07-31T22:01:57.911Z,5.63
2022-07-31T22:05:20.875Z,5.63
2022-07-31T22:08:23.970Z,5.37
2022-07-31T22:11:30.573Z,5.90
2022-07-31T22:14:33.626Z,5.20
2022-07-31T22:17:36.718Z,5.53
2022-07-31T22:20:40.483Z,5.37
2022-07-31T22:23:43.879Z,5.00
2022-07-31T22:27:02.715Z,5.57
2022-07-31T22:30:07.315Z,4.93
2022-07-31T22:33:10.669Z,4.80
2022-07-31T22:36:14.033Z,5.20
2022-07-31T22:39:20.243Z,5.03
2022-07-31T22:42:25.087Z,5.80
2022-07-31T22:45:28.458Z,5.83
2022-07-31T22:48:35.673Z,5.27
2022-07-31T22:51:40.821Z,5.23
2022-07-31T22:54:46.417Z,4.80
2022-07-31T22:57:50.855Z,5.30
2022-07-31T23:00:53.933Z,4.40
2022-07-31T23:03:56.997Z,5.20
2022-07-31T23:07:00.029Z,4.97
2022-07-31T23:10:03.191Z,7.03
2022-07-31T23:13:07.643Z,4.23
2022-07-31T23:16:10.714Z,4.60
2022-07-31T23:19:13.818Z,4.57
2022-07-31T23:22:18.446Z,4.60
2022-07-31T23:25:23.215Z,7.47
2022-07-31T23:28:27.732Z,4.10
2022-07-31T23:31:30.830Z,4.43
2022-07-31T23:34:34.748Z,4.23
2022-07-31T23:37:37.828Z,4.40
2022-07-31T23:40:40.901Z,3.77
2022-07-31T23:43:54.328Z,4.40
2022-07-31T23:46:58.473Z,3.50
2022-07-31T23:50:04.599Z,4.10
2022-07-31T23:53:07.758Z,4.23
2022-07-31T23:56:13.191Z,3.67
2022-07-31T23:59:24.005Z,3.57
